Time;durP1;ratioP1;P1;durP2;ratioP2;P2;SDS_P1;SDS_P2;PMS_P1;PMS_P2;Temp;Humidity;BMP_temperature;BMP_pressure;BME280_temperature;BME280_humidity;BME280_pressure;Samples;Min_cycle;Max_cycle;Signal;HPM_P1;HPM_P2
2024/03/02 00:02:08;;;;;;;1.70;0.80;;;13.10;96.70;;;;;;4981185;28;20511;-70
2024/03/02 00:04:39;;;;;;;4.70;1.05;;;13.10;96.70;;;;;;4978129;28;20050;-70
2024/03/02 00:07:08;;;;;;;3.25;1.10;;;13.10;96.70;;;;;;4996449;28;20534;-70
2024/03/02 00:09:39;;;;;;;1.48;1.02;;;13.10;96.70;;;;;;4980721;28;20525;-70
2024/03/02 00:12:11;;;;;;;1.42;0.80;;;13.10;96.70;;;;;;4993956;28;20832;-70
2024/03/02 00:14:43;;;;;;;2.75;0.98;;;13.00;96.70;;;;;;4985854;28;20463;-70
2024/03/02 00:17:25;;;;;;;1.15;0.73;;;13.00;96.70;;;;;;4969872;28;20046;-70
2024/03/02 00:19:56;;;;;;;1.83;0.82;;;13.00;96.70;;;;;;4991883;28;20553;-70
2024/03/02 00:22:24;;;;;;;1.65;0.90;;;13.00;96.70;;;;;;4984673;28;20057;-70
2024/03/02 00:24:56;;;;;;;2.17;0.93;;;13.00;96.70;;;;;;4981973;28;20116;-70
2024/03/02 00:27:28;;;;;;;1.10;0.80;;;13.00;96.70;;;;;;4986311;28;20452;-70
2024/03/02 00:29:56;;;;;;;2.70;0.60;;;13.00;96.70;;;;;;4979106;28;20046;-70
2024/03/02 00:32:28;;;;;;;0.90;0.50;;;13.00;96.70;;;;;;4968365;28;20042;-70
2024/03/02 00:34:59;;;;;;;0.85;0.60;;;13.00;96.70;;;;;;4987364;28;20046;-70
2024/03/02 00:37:31;;;;;;;1.75;0.70;;;13.00;96.70;;;;;;4978519;28;20065;-70
2024/03/02 00:40:06;;;;;;;3.33;0.75;;;13.00;96.70;;;;;;4992367;28;20066;-70
2024/03/02 00:42:36;;;;;;;1.90;0.50;;;13.00;96.70;;;;;;4973094;28;20096;-70
2024/03/02 00:45:08;;;;;;;3.45;0.60;;;13.00;96.70;;;;;;4974008;28;20400;-70
2024/03/02 00:47:39;;;;;;;1.23;0.50;;;13.00;96.70;;;;;;4983383;28;20058;-70
2024/03/02 00:50:09;;;;;;;1.25;0.50;;;13.00;96.70;;;;;;4978604;28;20046;-70
2024/03/02 00:52:50;;;;;;;0.93;0.55;;;13.00;96.70;;;;;;4992563;28;20042;-70
2024/03/02 00:55:20;;;;;;;1.40;0.60;;;13.00;96.70;;;;;;4986040;28;20165;-70
2024/03/02 00:57:49;;;;;;;0.73;0.30;;;13.10;96.70;;;;;;4982329;28;20060;-70
2024/03/02 01:00:19;;;;;;;0.50;0.40;;;13.10;96.70;;;;;;4978680;28;20046;-69
2024/03/02 01:02:48;;;;;;;1.90;0.47;;;13.10;96.70;;;;;;4999985;28;20054;-70
2024/03/02 01:05:16;;;;;;;1.52;0.60;;;13.10;96.70;;;;;;4981880;28;20046;-70
2024/03/02 01:07:45;;;;;;;1.60;0.40;;;13.10;96.70;;;;;;4982036;28;20054;-70
2024/03/02 01:10:13;;;;;;;1.60;0.45;;;13.00;96.70;;;;;;4985875;28;20038;-70
2024/03/02 01:12:45;;;;;;;0.90;0.30;;;13.00;96.70;;;;;;4966667;28;20053;-70
2024/03/02 01:15:13;;;;;;;2.13;0.35;;;13.00;96.70;;;;;;4974714;28;20120;-70
2024/03/02 01:17:42;;;;;;;1.40;0.30;;;13.00;96.70;;;;;;4990569;28;20054;-70
2024/03/02 01:20:12;;;;;;;1.10;0.52;;;13.00;96.70;;;;;;4982471;28;20047;-70
2024/03/02 01:22:41;;;;;;;1.38;0.40;;;13.10;96.70;;;;;;4982557;28;20511;-70
2024/03/02 01:25:10;;;;;;;1.15;0.40;;;13.10;96.70;;;;;;4976193;28;20052;-70
2024/03/02 01:27:38;;;;;;;0.77;0.20;;;13.10;96.70;;;;;;4981599;28;20120;-70
2024/03/02 01:30:11;;;;;;;1.45;0.30;;;13.10;96.70;;;;;;4986192;28;20042;-70
2024/03/02 01:32:39;;;;;;;0.57;0.20;;;13.10;96.70;;;;;;4981190;28;20510;-70
2024/03/02 01:35:09;;;;;;;1.55;0.40;;;13.10;96.70;;;;;;4997684;28;20499;-70
2024/03/02 01:37:39;;;;;;;0.93;0.30;;;13.10;96.70;;;;;;4975698;28;20052;-70
2024/03/02 01:40:11;;;;;;;1.42;0.30;;;13.10;96.70;;;;;;4971184;28;20055;-70
2024/03/02 01:42:39;;;;;;;0.98;0.30;;;13.10;96.70;;;;;;4988208;28;20077;-70
2024/03/02 01:45:09;;;;;;;1.13;0.30;;;13.10;96.70;;;;;;4970730;28;20063;-70
2024/03/02 01:47:38;;;;;;;0.45;0.10;;;13.10;96.70;;;;;;4987478;28;20053;-70
2024/03/02 01:50:08;;;;;;;0.65;0.38;;;13.20;96.70;;;;;;4987443;28;20048;-70
2024/03/02 01:52:38;;;;;;;1.02;0.40;;;13.10;96.70;;;;;;5001509;28;20048;-70
2024/03/02 01:55:09;;;;;;;0.95;0.20;;;13.00;96.70;;;;;;4967129;28;20051;-70
2024/03/02 01:57:38;;;;;;;1.02;0.20;;;13.00;96.70;;;;;;4972901;28;20073;-70
2024/03/02 02:00:13;;;;;;;1.55;0.10;;;13.00;96.70;;;;;;4988674;28;20057;-70
2024/03/02 02:02:42;;;;;;;0.73;0.20;;;13.00;96.70;;;;;;4998590;28;20074;-70
2024/03/02 02:05:12;;;;;;;1.48;0.20;;;13.00;96.70;;;;;;4975122;28;20423;-70
2024/03/02 02:07:42;;;;;;;1.77;0.30;;;13.00;96.70;;;;;;4980726;28;20051;-69
2024/03/02 02:10:12;;;;;;;1.40;0.22;;;12.90;96.70;;;;;;4993549;28;20046;-70
2024/03/02 02:12:42;;;;;;;0.80;0.20;;;12.90;96.70;;;;;;4965415;28;20045;-70
2024/03/02 02:15:36;;;;;;;1.42;0.20;;;12.90;96.70;;;;;;4984345;28;20631;-70
2024/03/02 02:18:06;;;;;;;2.20;0.35;;;12.90;96.70;;;;;;4971035;28;20057;-70
2024/03/02 02:20:36;;;;;;;1.05;0.40;;;12.90;96.70;;;;;;4985589;28;20041;-70
2024/03/02 02:23:09;;;;;;;0.57;0.20;;;12.90;96.70;;;;;;4977435;28;20054;-70
2024/03/02 02:25:38;;;;;;;1.00;0.30;;;12.90;96.70;;;;;;4970527;28;20059;-70
2024/03/02 02:28:09;;;;;;;0.30;0.20;;;12.90;96.70;;;;;;4985548;28;20046;-70
2024/03/02 02:30:39;;;;;;;0.77;0.40;;;12.90;96.70;;;;;;4975097;28;20049;-70
2024/03/02 02:33:09;;;;;;;0.80;0.30;;;12.90;96.70;;;;;;4968544;28;20045;-70
2024/03/02 02:35:38;;;;;;;0.88;0.40;;;12.90;96.70;;;;;;4969914;28;20081;-70
2024/03/02 02:38:10;;;;;;;0.68;0.32;;;12.90;96.70;;;;;;4982752;28;20051;-70
2024/03/02 02:40:39;;;;;;;2.78;1.50;;;12.90;96.70;;;;;;4971903;28;20059;-70
2024/03/02 02:43:10;;;;;;;1.80;0.50;;;12.90;96.70;;;;;;4973945;28;20542;-70
2024/03/02 02:45:39;;;;;;;2.17;0.65;;;12.90;96.70;;;;;;4980140;28;20388;-70
2024/03/02 02:48:09;;;;;;;1.02;0.30;;;12.90;96.70;;;;;;4989011;28;20046;-70
2024/03/02 02:50:39;;;;;;;0.50;0.40;;;12.90;96.70;;;;;;4986185;28;20531;-69
2024/03/02 02:53:09;;;;;;;1.08;0.30;;;12.90;96.70;;;;;;4977356;28;20057;-69
2024/03/02 02:55:40;;;;;;;0.93;0.30;;;12.80;96.70;;;;;;4973842;28;20058;-69
2024/03/02 02:58:09;;;;;;;1.35;0.30;;;12.80;96.70;;;;;;4971233;28;20116;-69
2024/03/02 03:00:38;;;;;;;0.98;0.40;;;12.70;96.70;;;;;;4979369;28;20038;-69
2024/03/02 03:03:07;;;;;;;0.60;0.30;;;12.70;96.70;;;;;;4976173;28;20077;-69
2024/03/02 03:05:35;;;;;;;0.73;0.30;;;12.70;96.70;;;;;;4995775;28;20042;-69
2024/03/02 03:08:04;;;;;;;0.57;0.17;;;12.60;96.70;;;;;;4978374;28;20059;-69
2024/03/02 03:10:37;;;;;;;0.43;0.20;;;12.60;96.70;;;;;;4993677;28;20038;-70
2024/03/02 03:13:07;;;;;;;1.08;0.25;;;12.60;96.70;;;;;;4970545;28;20086;-70
2024/03/02 03:15:37;;;;;;;0.50;0.20;;;12.60;96.70;;;;;;4992282;28;20605;-69
2024/03/02 03:18:07;;;;;;;1.30;0.35;;;12.70;96.70;;;;;;4985728;28;20138;-70
2024/03/02 03:20:36;;;;;;;1.55;0.40;;;12.70;96.70;;;;;;4976011;28;20097;-69
2024/03/02 03:23:06;;;;;;;0.75;0.30;;;12.70;96.70;;;;;;4988679;28;20136;-69
2024/03/02 03:25:36;;;;;;;0.95;0.40;;;12.70;96.70;;;;;;4980265;28;20108;-70
2024/03/02 03:28:06;;;;;;;2.10;0.88;;;12.70;96.70;;;;;;4993089;28;20061;-69
2024/03/02 03:30:34;;;;;;;2.35;0.60;;;12.70;96.70;;;;;;4974375;28;20133;-70
2024/03/02 03:33:04;;;;;;;2.00;0.57;;;12.60;96.70;;;;;;4979840;28;20061;-69
2024/03/02 03:35:32;;;;;;;1.25;0.60;;;12.60;96.70;;;;;;4972214;28;20050;-69
2024/03/02 03:38:01;;;;;;;1.90;0.70;;;12.70;96.70;;;;;;4990080;28;20046;-69
2024/03/02 03:40:32;;;;;;;1.15;0.65;;;12.60;96.70;;;;;;4988146;28;20565;-69
2024/03/02 03:43:04;;;;;;;1.88;0.98;;;12.60;96.70;;;;;;4979832;28;20065;-69
2024/03/02 03:45:34;;;;;;;1.20;0.80;;;12.50;96.70;;;;;;4983786;28;20149;-69
2024/03/02 03:48:06;;;;;;;1.63;0.88;;;12.40;96.70;;;;;;5000826;28;20523;-71
2024/03/02 03:50:35;;;;;;;1.13;0.60;;;12.40;96.70;;;;;;4977823;28;20057;-70
2024/03/02 03:53:06;;;;;;;1.52;0.80;;;12.40;96.70;;;;;;5001131;28;20084;-70
2024/03/02 03:55:35;;;;;;;1.27;0.75;;;12.30;96.70;;;;;;4972813;28;20054;-70
2024/03/02 03:58:05;;;;;;;2.38;0.85;;;12.40;96.70;;;;;;4974675;28;20054;-69
2024/03/02 04:00:34;;;;;;;2.20;1.05;;;12.30;96.70;;;;;;4987517;28;20051;-70
2024/03/02 04:03:03;;;;;;;1.13;0.80;;;12.30;96.70;;;;;;4973839;28;20042;-71
2024/03/02 04:05:33;;;;;;;2.63;0.95;;;12.30;96.70;;;;;;4996755;28;20081;-70
2024/03/02 04:08:02;;;;;;;1.42;0.80;;;12.40;96.70;;;;;;4966811;28;20153;-70
2024/03/02 04:10:31;;;;;;;2.42;0.90;;;12.40;96.70;;;;;;4971823;28;20058;-71
2024/03/02 04:12:59;;;;;;;1.48;0.80;;;12.50;96.70;;;;;;4977777;28;20120;-71
2024/03/02 04:15:30;;;;;;;1.10;0.80;;;12.50;96.70;;;;;;4973671;28;20059;-70
2024/03/02 04:17:58;;;;;;;1.75;1.17;;;12.40;96.70;;;;;;4982078;28;20069;-70
2024/03/02 04:20:27;;;;;;;1.60;0.90;;;12.40;96.70;;;;;;5000139;28;20097;-70
2024/03/02 04:22:57;;;;;;;1.63;0.98;;;12.40;96.70;;;;;;4980695;28;20684;-70
2024/03/02 04:25:26;;;;;;;2.25;1.23;;;12.40;96.70;;;;;;4976296;28;20052;-70
2024/03/02 04:27:55;;;;;;;1.55;1.00;;;12.40;96.70;;;;;;4978525;28;20134;-71
2024/03/02 04:30:26;;;;;;;1.27;1.00;;;12.40;96.70;;;;;;4964411;28;20706;-71
2024/03/02 04:32:57;;;;;;;2.80;0.90;;;12.40;96.70;;;;;;4991079;28;20070;-71
2024/03/02 04:35:27;;;;;;;2.45;0.80;;;12.40;96.70;;;;;;4968258;28;20050;-71
2024/03/02 04:38:00;;;;;;;0.80;0.75;;;12.40;96.70;;;;;;4970764;28;20102;-70
2024/03/02 04:40:29;;;;;;;1.67;0.85;;;12.40;96.70;;;;;;4969338;28;20050;-70
2024/03/02 04:43:03;;;;;;;1.00;0.77;;;12.40;96.70;;;;;;4961620;28;20523;-70
2024/03/02 04:45:32;;;;;;;0.77;0.50;;;12.40;96.70;;;;;;4994643;28;20055;-70
2024/03/02 04:48:03;;;;;;;1.48;0.80;;;12.50;96.70;;;;;;4952638;28;20081;-70
2024/03/02 04:50:33;;;;;;;1.38;0.95;;;12.50;96.70;;;;;;4951051;28;20074;-70
2024/03/02 04:53:02;;;;;;;0.65;0.60;;;12.50;96.70;;;;;;4955319;28;20150;-70
2024/03/02 04:58:04;;;;;;;1.23;0.60;;;12.50;96.70;;;;;;4970130;28;20055;-70
2024/03/02 05:00:35;;;;;;;1.92;0.80;;;12.60;96.70;;;;;;4956870;28;20053;-69
2024/03/02 05:03:05;;;;;;;1.73;0.90;;;12.50;96.70;;;;;;4973336;28;20057;-69
2024/03/02 05:05:37;;;;;;;1.00;0.90;;;12.50;96.70;;;;;;4970588;28;20404;-70
2024/03/02 05:08:06;;;;;;;0.73;0.65;;;12.50;96.70;;;;;;4974970;28;20051;-70
2024/03/02 05:10:38;;;;;;;1.20;0.70;;;12.60;96.70;;;;;;4962932;28;20059;-70
2024/03/02 05:13:09;;;;;;;1.70;0.65;;;12.60;96.70;;;;;;4970957;28;20523;-69
2024/03/02 05:15:38;;;;;;;1.75;1.10;;;12.60;96.70;;;;;;4971328;28;20059;-69
2024/03/02 05:18:09;;;;;;;0.80;0.80;;;12.70;96.70;;;;;;4961551;28;20058;-70
2024/03/02 05:20:39;;;;;;;1.83;1.08;;;12.60;96.70;;;;;;4960791;28;20525;-69
2024/03/02 05:23:13;;;;;;;2.50;1.17;;;12.60;96.70;;;;;;4956209;28;20051;-70
2024/03/02 05:25:42;;;;;;;1.25;1.10;;;12.60;96.70;;;;;;4953426;28;20062;-70
2024/03/02 05:28:11;;;;;;;1.90;0.90;;;12.70;96.70;;;;;;4975123;28;20505;-70
2024/03/02 05:30:39;;;;;;;2.83;1.20;;;12.70;96.70;;;;;;4960631;28;20539;-70
2024/03/02 05:33:13;;;;;;;1.55;1.30;;;12.70;96.70;;;;;;4962212;28;20130;-70
2024/03/02 05:35:46;;;;;;;1.58;1.20;;;12.60;96.70;;;;;;4986426;28;20078;-70
2024/03/02 05:38:14;;;;;;;2.25;1.23;;;12.60;96.70;;;;;;4947823;28;20051;-70
2024/03/02 05:40:43;;;;;;;1.38;1.05;;;12.60;96.70;;;;;;4967838;28;20504;-70
2024/03/02 05:43:12;;;;;;;3.38;1.88;;;12.70;96.70;;;;;;4986189;28;20097;-70
2024/03/02 05:45:42;;;;;;;2.22;1.50;;;12.70;96.70;;;;;;4991829;28;20064;-70
2024/03/02 05:48:12;;;;;;;3.80;1.52;;;12.70;96.70;;;;;;4971643;28;20053;-70
2024/03/02 05:50:43;;;;;;;1.92;1.65;;;12.70;96.70;;;;;;4971508;28;20046;-70
2024/03/02 05:53:11;;;;;;;1.70;1.60;;;12.70;96.70;;;;;;4987204;28;20042;-70
2024/03/02 05:55:39;;;;;;;3.28;1.80;;;12.70;96.70;;;;;;4967923;28;20125;-70
2024/03/02 06:00:59;;;;;;;2.35;1.88;;;12.70;96.70;;;;;;4998731;28;20053;-70
2024/03/02 06:03:29;;;;;;;1.95;1.67;;;12.70;96.70;;;;;;4984357;28;20415;-70
2024/03/02 06:05:58;;;;;;;2.47;1.92;;;12.70;96.70;;;;;;4981326;28;20635;-70
2024/03/02 06:08:26;;;;;;;1.98;1.80;;;12.70;96.70;;;;;;4973916;28;21245;-70
2024/03/02 06:10:56;;;;;;;3.63;2.08;;;12.80;96.70;;;;;;4974251;28;20542;-70
2024/03/02 06:13:26;;;;;;;2.38;2.17;;;12.80;96.70;;;;;;4984872;28;20042;-70
2024/03/02 06:15:54;;;;;;;3.35;2.20;;;12.80;96.70;;;;;;4968326;28;20049;-71
2024/03/02 06:18:23;;;;;;;2.85;2.25;;;12.80;96.70;;;;;;4989694;28;20138;-70
2024/03/02 06:20:51;;;;;;;3.40;1.95;;;12.80;96.70;;;;;;4974753;28;20104;-70
2024/03/02 06:23:21;;;;;;;2.60;2.40;;;12.80;96.70;;;;;;4969572;28;20054;-71
2024/03/02 06:25:49;;;;;;;4.18;2.67;;;12.80;96.70;;;;;;4987331;28;20093;-70
2024/03/02 06:28:17;;;;;;;6.18;2.42;;;12.90;96.70;;;;;;4975012;28;20057;-70
2024/03/02 06:30:46;;;;;;;4.13;3.13;;;12.90;96.70;;;;;;4990448;28;20073;-70
2024/03/02 06:33:15;;;;;;;3.13;2.20;;;12.80;96.70;;;;;;4964995;28;20082;-70
2024/03/02 06:35:44;;;;;;;3.17;2.40;;;12.90;96.70;;;;;;4989199;28;20067;-70
2024/03/02 06:38:12;;;;;;;2.45;2.15;;;12.80;96.70;;;;;;4962082;28;20514;-70
2024/03/02 06:40:42;;;;;;;2.67;2.20;;;12.80;96.70;;;;;;4983009;28;20132;-70
2024/03/02 06:43:14;;;;;;;3.58;2.58;;;12.80;96.70;;;;;;4967670;28;20066;-69
2024/03/02 06:45:45;;;;;;;2.90;2.60;;;12.80;96.70;;;;;;4987470;28;20072;-70
2024/03/02 06:48:18;;;;;;;5.13;3.40;;;12.80;96.70;;;;;;4966738;28;20078;-70
2024/03/02 06:50:47;;;;;;;4.60;2.97;;;12.80;96.70;;;;;;4978954;28;20069;-70
2024/03/02 06:53:17;;;;;;;4.07;3.63;;;12.80;96.70;;;;;;4971913;28;20030;-70
2024/03/02 06:55:47;;;;;;;3.53;2.83;;;12.80;96.70;;;;;;4971212;28;20081;-70
2024/03/02 06:58:16;;;;;;;5.32;3.55;;;12.60;96.70;;;;;;4987701;28;20056;-70
2024/03/02 07:00:47;;;;;;;6.07;3.92;;;12.60;96.70;;;;;;4984325;28;20041;-70
2024/03/02 07:03:16;;;;;;;3.70;2.65;;;12.60;96.70;;;;;;4983928;28;20054;-71
2024/03/02 07:05:44;;;;;;;3.88;2.70;;;12.40;96.70;;;;;;4962576;28;20405;-72
2024/03/02 07:08:13;;;;;;;3.00;1.73;;;12.20;96.70;;;;;;4961923;28;20646;-71
2024/03/02 07:10:43;;;;;;;2.90;1.05;;;12.20;96.70;;;;;;4987112;28;20510;-71
2024/03/02 07:13:15;;;;;;;3.47;1.40;;;12.10;96.70;;;;;;4965073;28;20109;-71
2024/03/02 07:16:29;;;;;;;2.10;0.77;;;12.10;96.70;;;;;;4983012;28;20057;-71
2024/03/02 07:18:33;;;;;;;3.08;1.30;;;12.00;96.70;;;;;;4973537;28;20053;-72
2024/03/02 07:21:01;;;;;;;12.32;2.75;;;11.90;96.70;;;;;;4971434;28;20050;-69
2024/03/02 07:23:31;;;;;;;3.10;1.40;;;12.00;96.70;;;;;;4982195;28;20112;-70
2024/03/02 07:26:01;;;;;;;3.42;0.60;;;12.00;96.70;;;;;;4976909;28;20054;-70
2024/03/02 07:28:34;;;;;;;3.25;1.20;;;12.00;96.70;;;;;;4977836;28;20719;-71
2024/03/02 07:31:04;;;;;;;3.38;0.95;;;12.10;96.70;;;;;;4991329;28;20050;-70
2024/03/02 07:33:33;;;;;;;3.83;1.55;;;12.10;96.70;;;;;;5003994;28;20046;-71
2024/03/02 07:36:02;;;;;;;3.33;1.50;;;12.10;96.70;;;;;;4975700;28;20042;-70
2024/03/02 07:38:34;;;;;;;4.25;1.27;;;12.10;96.70;;;;;;4990674;28;20730;-70
2024/03/02 07:41:04;;;;;;;4.47;1.25;;;12.10;96.70;;;;;;5017467;28;20068;-69
2024/03/02 07:43:35;;;;;;;7.43;3.40;;;12.20;96.70;;;;;;4973088;28;20062;-71
2024/03/02 07:46:05;;;;;;;6.05;3.15;;;12.20;96.70;;;;;;4981842;28;20056;-71
2024/03/02 07:48:34;;;;;;;12.55;7.35;;;12.30;96.70;;;;;;4978249;28;20579;-70
2024/03/02 07:51:03;;;;;;;6.05;2.70;;;12.30;96.70;;;;;;4983214;28;20069;-71
2024/03/02 07:53:31;;;;;;;3.30;1.90;;;12.40;96.70;;;;;;4992053;28;20484;-70
2024/03/02 07:56:02;;;;;;;3.67;1.23;;;12.50;96.70;;;;;;4973380;28;20542;-72
2024/03/02 07:58:31;;;;;;;4.80;1.95;;;12.60;96.70;;;;;;4998323;28;20045;-71
2024/03/02 08:01:01;;;;;;;3.53;1.50;;;12.70;96.70;;;;;;4981174;28;20162;-71
2024/03/02 08:03:32;;;;;;;5.15;2.45;;;12.80;96.70;;;;;;4988821;28;20053;-71
2024/03/02 08:06:00;;;;;;;26.02;13.40;;;12.90;96.70;;;;;;4998333;28;20061;-71
2024/03/02 08:08:30;;;;;;;9.63;4.68;;;12.90;96.70;;;;;;4991521;28;20060;-71
2024/03/02 08:10:59;;;;;;;15.93;8.90;;;12.90;96.70;;;;;;4990301;28;20342;-71
2024/03/02 08:13:28;;;;;;;6.50;2.35;;;13.00;96.70;;;;;;4986905;28;20085;-71
2024/03/02 08:15:57;;;;;;;6.57;3.13;;;13.10;96.70;;;;;;4995822;28;20051;-71
2024/03/02 08:18:26;;;;;;;4.53;2.10;;;13.20;96.70;;;;;;4986604;28;20054;-72
2024/03/02 08:20:55;;;;;;;3.08;1.45;;;13.30;96.70;;;;;;4990550;28;20168;-71
2024/03/02 08:23:23;;;;;;;2.47;1.70;;;13.40;96.70;;;;;;4980924;28;20510;-71
2024/03/02 08:25:53;;;;;;;6.53;1.90;;;13.50;96.70;;;;;;4970458;28;20681;-71
2024/03/02 08:28:22;;;;;;;4.88;1.70;;;13.60;96.70;;;;;;4968486;28;20060;-71
2024/03/02 08:30:50;;;;;;;2.40;1.10;;;13.70;96.70;;;;;;4978326;28;20061;-71
2024/03/02 08:33:19;;;;;;;6.57;1.30;;;13.70;96.70;;;;;;4999473;28;20049;-71
2024/03/02 08:35:52;;;;;;;3.33;1.50;;;13.70;96.70;;;;;;5000971;28;20049;-72
2024/03/02 08:38:21;;;;;;;4.07;0.88;;;13.80;96.70;;;;;;4991517;28;20120;-72
2024/03/02 08:40:50;;;;;;;2.22;0.70;;;13.90;96.70;;;;;;4975260;28;20475;-71
2024/03/02 08:43:19;;;;;;;2.45;1.10;;;13.90;96.70;;;;;;4986190;28;20080;-71
2024/03/02 08:45:50;;;;;;;3.85;1.70;;;14.00;96.70;;;;;;4997023;28;20594;-71
2024/03/02 08:48:20;;;;;;;3.03;1.00;;;14.20;96.70;;;;;;4973471;28;20057;-70
2024/03/02 08:50:50;;;;;;;3.88;0.88;;;14.30;96.70;;;;;;4991235;28;20089;-69
2024/03/02 08:53:18;;;;;;;2.00;0.80;;;14.40;96.70;;;;;;4975160;28;20051;-71
2024/03/02 08:55:46;;;;;;;1.52;0.60;;;14.30;96.70;;;;;;5002175;28;20513;-70
2024/03/02 08:58:15;;;;;;;4.15;1.17;;;14.30;96.70;;;;;;4986003;28;20058;-70
2024/03/02 09:00:46;;;;;;;4.35;0.90;;;14.40;96.70;;;;;;4980495;28;20139;-70
2024/03/02 09:03:16;;;;;;;3.22;0.82;;;14.50;96.70;;;;;;4977868;28;20077;-71
2024/03/02 09:05:44;;;;;;;4.90;1.05;;;14.40;96.70;;;;;;4971400;28;20038;-72
2024/03/02 09:08:14;;;;;;;4.18;0.73;;;14.30;96.70;;;;;;4989142;28;20046;-71
2024/03/02 09:10:43;;;;;;;4.55;0.93;;;14.30;96.70;;;;;;4995076;28;20384;-71
2024/03/02 09:13:11;;;;;;;3.80;0.57;;;14.30;96.70;;;;;;4991280;28;20417;-73
2024/03/02 09:15:42;;;;;;;3.60;0.55;;;14.40;96.70;;;;;;4988598;28;20050;-73
2024/03/02 09:18:11;;;;;;;3.10;0.65;;;14.40;96.70;;;;;;4979218;28;20061;-71
2024/03/02 09:20:41;;;;;;;8.60;1.83;;;14.40;96.70;;;;;;4997331;28;20077;-72
2024/03/02 09:23:09;;;;;;;4.82;0.95;;;14.40;96.70;;;;;;4989168;28;20054;-72
2024/03/02 09:25:39;;;;;;;3.67;0.77;;;14.40;96.70;;;;;;4974410;28;20046;-72
2024/03/02 09:28:09;;;;;;;3.25;1.10;;;14.40;96.70;;;;;;4990871;28;20057;-72
2024/03/02 09:30:40;;;;;;;4.10;0.85;;;14.40;96.70;;;;;;4976006;28;20050;-72
2024/03/02 09:33:10;;;;;;;2.88;1.00;;;14.40;96.70;;;;;;4998378;28;20380;-72
2024/03/02 09:35:42;;;;;;;6.00;1.83;;;14.40;96.70;;;;;;4972915;28;20062;-72
2024/03/02 09:38:10;;;;;;;9.73;4.40;;;14.50;96.70;;;;;;4986109;28;21118;-72
2024/03/02 09:40:41;;;;;;;5.53;2.50;;;14.50;96.70;;;;;;4991992;28;20137;-72
2024/03/02 09:43:10;;;;;;;5.50;2.00;;;14.60;96.70;;;;;;4997037;28;20063;-72
2024/03/02 09:45:39;;;;;;;4.18;1.40;;;14.70;96.70;;;;;;4985483;28;20078;-71
2024/03/02 09:48:08;;;;;;;7.63;1.20;;;14.80;96.70;;;;;;5006112;28;20058;-72
2024/03/02 09:50:38;;;;;;;4.63;1.35;;;14.90;96.70;;;;;;5003096;28;20057;-72
2024/03/02 09:53:10;;;;;;;8.82;1.65;;;15.20;96.70;;;;;;4994314;28;20050;-72
2024/03/02 09:55:43;;;;;;;7.93;1.65;;;15.20;96.70;;;;;;4992203;28;20414;-70
2024/03/02 09:58:13;;;;;;;6.55;1.27;;;15.10;96.70;;;;;;4972763;28;20072;-71
2024/03/02 10:00:42;;;;;;;4.80;1.60;;;15.00;96.70;;;;;;4981048;28;20050;-71
2024/03/02 10:03:13;;;;;;;4.80;1.30;;;14.90;96.70;;;;;;4987399;28;20043;-72
2024/03/02 10:05:43;;;;;;;4.63;0.90;;;14.90;96.70;;;;;;4993205;28;20057;-70
2024/03/02 10:08:12;;;;;;;2.38;1.00;;;15.20;96.70;;;;;;4960747;28;20121;-71
2024/03/02 10:10:43;;;;;;;7.95;2.05;;;15.50;96.70;;;;;;4990443;28;20058;-71
2024/03/02 10:13:14;;;;;;;9.68;1.30;;;15.50;96.70;;;;;;4975391;28;20138;-71
2024/03/02 10:15:46;;;;;;;6.70;1.40;;;15.80;96.70;;;;;;4988971;28;20053;-70
2024/03/02 10:18:27;;;;;;;4.05;1.35;;;16.00;96.70;;;;;;4972070;28;20082;-71
2024/03/02 10:21:05;;;;;;;6.30;1.33;;;16.00;96.70;;;;;;5007155;28;20521;-71
2024/03/02 10:23:35;;;;;;;5.88;1.05;;;15.90;96.70;;;;;;4983558;28;20049;-70
2024/03/02 10:26:18;;;;;;;6.93;1.25;;;15.80;96.70;;;;;;4984349;28;20140;-71
2024/03/02 10:28:58;;;;;;;11.30;1.38;;;16.10;96.70;;;;;;4993459;28;20126;-69
2024/03/02 10:31:31;;;;;;;7.50;1.38;;;16.10;96.70;;;;;;4984941;28;20058;-70
2024/03/02 10:34:01;;;;;;;5.88;0.90;;;16.00;96.70;;;;;;5001070;28;20058;-70
2024/03/02 10:36:31;;;;;;;3.35;0.70;;;16.10;96.70;;;;;;4992800;28;20060;-70
2024/03/02 10:38:59;;;;;;;7.10;1.05;;;15.90;96.70;;;;;;4971371;28;20058;-71
2024/03/02 10:41:35;;;;;;;6.10;0.90;;;15.70;96.70;;;;;;4990860;28;20529;-71
2024/03/02 10:44:08;;;;;;;6.05;1.10;;;15.60;96.70;;;;;;4985767;28;20053;-70
2024/03/02 10:46:37;;;;;;;8.35;1.50;;;15.60;96.70;;;;;;4991166;28;20137;-70
2024/03/02 10:49:07;;;;;;;6.15;1.30;;;15.50;96.70;;;;;;4982785;28;20084;-70
2024/03/02 10:51:37;;;;;;;5.85;1.70;;;15.40;96.70;;;;;;5004129;28;20137;-70
2024/03/02 10:54:06;;;;;;;5.18;1.75;;;15.30;96.70;;;;;;4976691;28;20137;-70
2024/03/02 10:56:40;;;;;;;4.65;0.90;;;15.20;96.70;;;;;;5004648;28;20053;-70
2024/03/02 10:59:27;;;;;;;7.93;1.52;;;15.00;96.70;;;;;;4989947;28;20057;-70
2024/03/02 11:02:00;;;;;;;7.25;1.27;;;14.90;96.70;;;;;;5009927;28;20103;-70
2024/03/02 11:04:34;;;;;;;7.22;1.20;;;14.80;96.70;;;;;;5004978;28;20054;-70
2024/03/02 11:07:05;;;;;;;4.78;1.08;;;14.50;96.70;;;;;;4974988;28;20057;-70
2024/03/02 11:09:38;;;;;;;5.40;1.17;;;14.30;96.70;;;;;;5008996;28;20056;-71
2024/03/02 11:12:12;;;;;;;5.40;1.25;;;14.20;96.70;;;;;;4982622;28;20049;-70
2024/03/02 11:14:45;;;;;;;7.32;1.27;;;14.00;96.70;;;;;;4979838;28;20054;-71
2024/03/02 11:17:18;;;;;;;6.35;1.10;;;13.80;96.70;;;;;;4977091;28;20056;-71
2024/03/02 11:19:49;;;;;;;5.45;1.13;;;13.70;96.70;;;;;;4989303;28;20050;-71
2024/03/02 11:22:18;;;;;;;6.63;1.13;;;13.70;96.70;;;;;;4972627;28;20050;-70
2024/03/02 11:24:51;;;;;;;5.47;1.67;;;13.70;96.70;;;;;;4968875;28;20046;-70
2024/03/02 11:28:03;;;;;;;5.97;1.37;;;13.70;96.70;;;;;;4974605;28;20565;-70
2024/03/02 11:30:53;;;;;;;10.48;1.73;;;13.80;96.70;;;;;;4994905;28;20555;-69
2024/03/02 11:33:27;;;;;;;4.75;1.42;;;13.80;96.70;;;;;;4995635;28;20060;-69
2024/03/02 11:35:58;;;;;;;9.52;2.00;;;13.80;96.70;;;;;;4979747;28;20434;-71
2024/03/02 11:38:32;;;;;;;7.38;1.42;;;13.80;96.70;;;;;;4983835;28;20072;-70
2024/03/02 11:41:03;;;;;;;6.30;2.40;;;13.80;96.70;;;;;;4982914;28;20511;-70
2024/03/02 11:43:39;;;;;;;21.17;13.30;;;13.90;96.70;;;;;;4982334;28;20144;-71
2024/03/02 11:46:08;;;;;;;6.07;2.30;;;13.90;96.70;;;;;;4979881;28;20088;-71
2024/03/02 11:48:38;;;;;;;6.38;1.90;;;13.80;96.70;;;;;;4980136;28;20678;-71
2024/03/02 11:51:08;;;;;;;8.35;2.85;;;13.70;96.70;;;;;;4971622;28;20073;-71
2024/03/02 11:53:40;;;;;;;6.93;2.20;;;13.80;96.70;;;;;;4972800;28;20046;-70
2024/03/02 11:56:15;;;;;;;7.38;2.20;;;13.80;96.70;;;;;;4983244;28;20072;-71
2024/03/02 11:58:51;;;;;;;6.95;1.90;;;13.80;96.70;;;;;;4976070;28;20057;-71
2024/03/02 12:01:23;;;;;;;6.72;1.88;;;13.90;96.70;;;;;;4978584;28;20072;-70
2024/03/02 12:03:54;;;;;;;8.35;2.45;;;13.90;96.70;;;;;;4976339;28;20053;-70
2024/03/02 12:06:24;;;;;;;6.60;1.85;;;13.90;96.70;;;;;;5006152;28;20139;-71
2024/03/02 12:08:57;;;;;;;8.48;1.80;;;14.00;96.70;;;;;;4972769;28;20061;-71
2024/03/02 12:11:27;;;;;;;6.35;1.60;;;13.90;96.70;;;;;;5007268;28;20096;-71
2024/03/02 12:13:58;;;;;;;4.05;1.85;;;13.90;96.70;;;;;;5014777;28;20058;-71
2024/03/02 12:16:28;;;;;;;7.60;1.95;;;13.80;96.70;;;;;;4997799;28;20054;-71
2024/03/02 12:18:57;;;;;;;7.13;1.40;;;13.70;96.70;;;;;;4989187;28;20052;-71
2024/03/02 12:21:27;;;;;;;8.45;1.95;;;13.70;96.70;;;;;;4998315;28;20132;-70
2024/03/02 12:23:57;;;;;;;4.70;1.50;;;13.60;96.70;;;;;;4977483;28;20100;-70
2024/03/02 12:26:29;;;;;;;6.30;1.52;;;13.60;96.70;;;;;;4990703;28;20055;-70
2024/03/02 12:29:03;;;;;;;5.25;1.25;;;13.50;96.70;;;;;;4991398;28;20050;-71
2024/03/02 12:31:35;;;;;;;8.07;1.40;;;13.50;96.70;;;;;;4992204;28;20059;-71
2024/03/02 12:34:04;;;;;;;5.28;1.20;;;13.40;96.70;;;;;;4975549;28;20100;-71
2024/03/02 12:36:38;;;;;;;4.05;1.10;;;13.30;96.70;;;;;;4990318;28;20078;-70
2024/03/02 12:39:08;;;;;;;6.60;1.27;;;13.30;96.70;;;;;;4973177;28;20073;-71
2024/03/02 12:41:37;;;;;;;4.95;0.98;;;13.20;96.70;;;;;;5000101;28;20408;-70
2024/03/02 12:44:08;;;;;;;6.13;1.50;;;13.10;96.70;;;;;;4975174;28;20073;-71
2024/03/02 12:46:37;;;;;;;5.63;1.30;;;13.10;96.70;;;;;;4987826;28;20062;-70
2024/03/02 12:49:10;;;;;;;6.40;1.58;;;13.20;96.70;;;;;;4986191;28;20774;-71
2024/03/02 12:51:40;;;;;;;7.32;1.48;;;13.30;96.70;;;;;;4976723;28;20058;-71
2024/03/02 12:54:13;;;;;;;4.55;1.10;;;13.30;96.70;;;;;;4986982;28;20054;-70
2024/03/02 12:56:47;;;;;;;6.07;1.23;;;13.30;96.70;;;;;;4976533;28;20058;-71
2024/03/02 12:59:24;;;;;;;4.90;1.20;;;13.40;96.70;;;;;;4979750;28;20054;-70
2024/03/02 13:01:52;;;;;;;3.72;1.20;;;13.40;96.70;;;;;;4990200;28;20093;-71
2024/03/02 13:04:25;;;;;;;6.47;1.48;;;13.50;96.70;;;;;;4978188;28;20049;-71
2024/03/02 13:06:57;;;;;;;6.65;1.05;;;13.50;96.70;;;;;;4979124;28;20464;-70
2024/03/02 13:09:27;;;;;;;5.07;1.50;;;13.60;96.70;;;;;;4990168;28;20585;-70